Saturday, November 18, 2017, 4:36 PM EST
Back to Local

KPEO, Penn Yan Airport

Location: Penn Yan, NY, United States Lat: 42.65
Local Time: 4:36 PM EST (21:36 GMT) Lon: -77.05
Time Zone: US/Eastern Elev: 977 ft

Show me the last for .
Show Decoded

2017-11-18 16:23 METAR KPEO 182123Z AUTO 18009KT 3SM RA SCT017 OVC065 07/03 A2941 RMK AO2 RAB00
                 P0001 T00670028 =
2017-11-18 15:53 METAR KPEO 182053Z AUTO 18011KT 10SM OVC017 07/02 A2943 RMK AO2 SLP972 T00720022
                 56030 =
2017-11-18 14:53 METAR KPEO 181953Z AUTO 17012G17KT 10SM OVC017 07/02 A2945 RMK AO2 SLP978
                 T00720022 =
2017-11-18 13:53 METAR KPEO 181853Z AUTO 18009G17KT 10SM OVC022 07/02 A2950 RMK AO2 SLP996
                 T00720017 =
2017-11-18 12:53 METAR KPEO 181753Z AUTO 17010KT 10SM OVC023 07/01 A2953 RMK AO2 SLP003 60000
                 T00720006 10078 20050 58032 =
2017-11-18 11:53 METAR KPEO 181653Z AUTO 17011KT 10SM OVC027 08/M01 A2955 RMK AO2 PRESFR SLP011
                 T00781006 =
2017-11-18 10:53 METAR KPEO 181553Z AUTO 19008G17KT 10SM OVC029 07/M02 A2960 RMK AO2 SLP029
                 T00721017 =
2017-11-18 09:53 METAR KPEO 181453Z AUTO 19009G15KT 10SM BKN042 OVC049 07/M04 A2962 RMK AO2
                 SLP037 60000 T00721039 56032 =
2017-11-18 08:53 METAR KPEO 181353Z AUTO 20008KT 10SM OVC070 07/M04 A2964 RMK AO2 RAB15E24 SLP045
                 P0000 T00671044 =
2017-11-18 07:53 METAR KPEO 181253Z AUTO 19011KT 10SM SCT065 OVC085 06/M04 A2969 RMK AO2 RAB05E33
                 SLP062 P0000 T00561044 =
2017-11-18 06:53 METAR KPEO 181153Z AUTO 19012G20KT 10SM OVC100 05/M04 A2972 RMK AO2 SLP071
                 T00501044 10050 20017 56022 =
2017-11-18 05:53 METAR KPEO 181053Z AUTO 18008G16KT 10SM CLR 04/M04 A2973 RMK AO2 SLP075
                 T00441039 =
2017-11-18 04:53 METAR KPEO 180953Z AUTO 20010G21KT 10SM CLR 04/M04 A2976 RMK AO2 SLP086
                 T00441044 =
2017-11-18 03:53 METAR KPEO 180853Z AUTO 19010G16KT 10SM CLR 04/M04 A2979 RMK AO2 SLP094
                 T00391044 58037 =
2017-11-18 02:53 METAR KPEO 180753Z AUTO 21007KT 10SM CLR 03/M05 A2983 RMK AO2 SLP110 T00281050 =
2017-11-18 01:53 METAR KPEO 180653Z AUTO 20008G16KT 10SM CLR 02/M04 A2986 RMK AO2 SLP118
                 T00221044 =
2017-11-18 00:53 METAR KPEO 180553Z AUTO 19008KT 10SM CLR 02/M06 A2990 RMK AO2 SLP132 T00171056
                 10022 21006 58036 =
2017-11-17 23:53 METAR KPEO 180453Z AUTO 22005KT 10SM OVC100 02/M04 A2994 RMK AO2 SLP149
                 T00171044 400391028 =
2017-11-17 22:53 METAR KPEO 180353Z AUTO 17006KT 10SM BKN110 01/M06 A2996 RMK AO2 SLP156
                 T00111061 =
2017-11-17 21:53 METAR KPEO 180253Z AUTO 15005KT 10SM CLR 00/M05 A3001 RMK AO2 SLP171 T00001050
                 58024 =
2017-11-17 20:53 METAR KPEO 180153Z AUTO 00000KT 10SM CLR 01/M04 A3004 RMK AO2 SLP183 T00061044 =
2017-11-17 19:53 METAR KPEO 180053Z AUTO 13004KT 10SM CLR 01/M06 A3006 RMK AO2 SLP189 T00061056 =
2017-11-17 18:53 METAR KPEO 172353Z AUTO 10006KT 10SM BKN110 01/M06 A3008 RMK AO2 SLP197
                 T00061061 10039 21028 58018 =
2017-11-17 17:53 METAR KPEO 172253Z AUTO 00000KT 10SM CLR 01/M05 A3012 RMK AO2 SLP210 T00061050 =
2017-11-17 16:53 METAR KPEO 172153Z AUTO 00000KT 10SM CLR M01/M07 A3012 RMK AO2 SLP212 T10061072
                 =

Support USWX by starting your Amazon purchase here.